sensor_id;sensor_type;location;lat;lon;timestamp;P1;durP1;ratioP1;P2;durP2;ratioP2
75937;SDS011;64615;32.062;34.834;2023-07-24T00:02:04;7.70;;;4.82;;
75937;SDS011;64615;32.062;34.834;2023-07-24T00:04:33;8.98;;;4.60;;
75937;SDS011;64615;32.062;34.834;2023-07-24T00:06:59;10.00;;;4.95;;
75937;SDS011;64615;32.062;34.834;2023-07-24T00:09:25;9.80;;;5.10;;
75937;SDS011;64615;32.062;34.834;2023-07-24T00:11:51;7.95;;;5.28;;
75937;SDS011;64615;32.062;34.834;2023-07-24T00:14:17;7.00;;;5.50;;
75937;SDS011;64615;32.062;34.834;2023-07-24T00:16:42;8.05;;;4.68;;
75937;SDS011;64615;32.062;34.834;2023-07-24T00:19:08;8.00;;;4.75;;
75937;SDS011;64615;32.062;34.834;2023-07-24T00:21:34;7.57;;;5.10;;
75937;SDS011;64615;32.062;34.834;2023-07-24T00:23:59;8.32;;;5.00;;
75937;SDS011;64615;32.062;34.834;2023-07-24T00:26:25;9.07;;;5.60;;
75937;SDS011;64615;32.062;34.834;2023-07-24T00:28:50;10.38;;;6.35;;
75937;SDS011;64615;32.062;34.834;2023-07-24T00:31:16;8.40;;;5.60;;
75937;SDS011;64615;32.062;34.834;2023-07-24T00:33:42;8.80;;;5.28;;
75937;SDS011;64615;32.062;34.834;2023-07-24T00:36:07;9.43;;;5.90;;
75937;SDS011;64615;32.062;34.834;2023-07-24T00:38:33;8.02;;;5.15;;
75937;SDS011;64615;32.062;34.834;2023-07-24T00:40:59;9.20;;;5.40;;
75937;SDS011;64615;32.062;34.834;2023-07-24T00:43:24;8.68;;;5.60;;
75937;SDS011;64615;32.062;34.834;2023-07-24T00:45:50;8.45;;;5.20;;
75937;SDS011;64615;32.062;34.834;2023-07-24T00:48:16;12.00;;;5.88;;
75937;SDS011;64615;32.062;34.834;2023-07-24T00:50:42;8.52;;;5.65;;
75937;SDS011;64615;32.062;34.834;2023-07-24T00:53:10;8.63;;;5.10;;
75937;SDS011;64615;32.062;34.834;2023-07-24T00:55:38;9.73;;;5.30;;
75937;SDS011;64615;32.062;34.834;2023-07-24T00:58:04;10.15;;;5.63;;
75937;SDS011;64615;32.062;34.834;2023-07-24T01:00:30;11.73;;;6.35;;
75937;SDS011;64615;32.062;34.834;2023-07-24T01:02:57;8.23;;;5.10;;
75937;SDS011;64615;32.062;34.834;2023-07-24T01:05:24;8.45;;;5.32;;
75937;SDS011;64615;32.062;34.834;2023-07-24T01:07:54;9.63;;;5.68;;
75937;SDS011;64615;32.062;34.834;2023-07-24T01:10:19;12.85;;;7.22;;
75937;SDS011;64615;32.062;34.834;2023-07-24T01:12:47;9.77;;;5.60;;
75937;SDS011;64615;32.062;34.834;2023-07-24T01:15:28;9.30;;;5.68;;
75937;SDS011;64615;32.062;34.834;2023-07-24T01:18:12;11.48;;;5.97;;
75937;SDS011;64615;32.062;34.834;2023-07-24T01:20:42;10.82;;;6.88;;
75937;SDS011;64615;32.062;34.834;2023-07-24T01:25:57;10.13;;;5.45;;
75937;SDS011;64615;32.062;34.834;2023-07-24T01:28:26;9.55;;;5.53;;
75937;SDS011;64615;32.062;34.834;2023-07-24T01:33:18;9.43;;;5.55;;
75937;SDS011;64615;32.062;34.834;2023-07-24T01:35:44;10.25;;;5.80;;
75937;SDS011;64615;32.062;34.834;2023-07-24T01:38:13;10.00;;;5.95;;
75937;SDS011;64615;32.062;34.834;2023-07-24T01:40:40;7.38;;;5.28;;
75937;SDS011;64615;32.062;34.834;2023-07-24T01:43:06;9.52;;;6.35;;
75937;SDS011;64615;32.062;34.834;2023-07-24T01:45:32;9.48;;;5.47;;
75937;SDS011;64615;32.062;34.834;2023-07-24T01:47:59;9.98;;;5.80;;
75937;SDS011;64615;32.062;34.834;2023-07-24T01:50:25;10.23;;;5.78;;
75937;SDS011;64615;32.062;34.834;2023-07-24T01:52:50;8.85;;;5.47;;
75937;SDS011;64615;32.062;34.834;2023-07-24T01:55:16;10.13;;;5.75;;
75937;SDS011;64615;32.062;34.834;2023-07-24T01:57:42;10.23;;;5.80;;
75937;SDS011;64615;32.062;34.834;2023-07-24T02:00:07;9.90;;;5.45;;
75937;SDS011;64615;32.062;34.834;2023-07-24T02:02:33;9.23;;;5.53;;
75937;SDS011;64615;32.062;34.834;2023-07-24T02:04:59;10.80;;;5.80;;
75937;SDS011;64615;32.062;34.834;2023-07-24T02:07:25;12.35;;;5.75;;
75937;SDS011;64615;32.062;34.834;2023-07-24T02:09:50;10.32;;;5.65;;
75937;SDS011;64615;32.062;34.834;2023-07-24T02:12:16;12.55;;;6.07;;
75937;SDS011;64615;32.062;34.834;2023-07-24T02:14:41;9.32;;;5.50;;
75937;SDS011;64615;32.062;34.834;2023-07-24T02:17:07;9.55;;;5.63;;
75937;SDS011;64615;32.062;34.834;2023-07-24T02:19:33;10.95;;;6.05;;
75937;SDS011;64615;32.062;34.834;2023-07-24T02:21:58;10.63;;;6.03;;
75937;SDS011;64615;32.062;34.834;2023-07-24T02:24:24;8.85;;;5.80;;
75937;SDS011;64615;32.062;34.834;2023-07-24T02:26:50;9.88;;;6.22;;
75937;SDS011;64615;32.062;34.834;2023-07-24T02:29:15;9.50;;;6.35;;
75937;SDS011;64615;32.062;34.834;2023-07-24T02:31:41;9.45;;;5.80;;
75937;SDS011;64615;32.062;34.834;2023-07-24T02:34:07;8.75;;;5.75;;
75937;SDS011;64615;32.062;34.834;2023-07-24T02:36:33;11.10;;;6.15;;
75937;SDS011;64615;32.062;34.834;2023-07-24T02:38:58;10.43;;;5.93;;
75937;SDS011;64615;32.062;34.834;2023-07-24T02:41:24;10.20;;;5.68;;
75937;SDS011;64615;32.062;34.834;2023-07-24T02:43:50;11.95;;;6.85;;
75937;SDS011;64615;32.062;34.834;2023-07-24T02:46:15;9.48;;;6.45;;
75937;SDS011;64615;32.062;34.834;2023-07-24T02:48:41;9.88;;;6.15;;
75937;SDS011;64615;32.062;34.834;2023-07-24T02:51:06;9.00;;;5.88;;
75937;SDS011;64615;32.062;34.834;2023-07-24T02:53:32;11.88;;;6.20;;
75937;SDS011;64615;32.062;34.834;2023-07-24T02:55:58;11.80;;;7.32;;
75937;SDS011;64615;32.062;34.834;2023-07-24T02:58:25;10.43;;;6.15;;
75937;SDS011;64615;32.062;34.834;2023-07-24T03:00:51;13.27;;;6.53;;
75937;SDS011;64615;32.062;34.834;2023-07-24T03:03:16;10.57;;;6.38;;
75937;SDS011;64615;32.062;34.834;2023-07-24T03:05:42;10.95;;;6.05;;
75937;SDS011;64615;32.062;34.834;2023-07-24T03:08:08;11.23;;;6.72;;
75937;SDS011;64615;32.062;34.834;2023-07-24T03:10:33;11.27;;;6.03;;
75937;SDS011;64615;32.062;34.834;2023-07-24T03:12:59;11.85;;;6.07;;
75937;SDS011;64615;32.062;34.834;2023-07-24T03:15:25;12.82;;;7.57;;
75937;SDS011;64615;32.062;34.834;2023-07-24T03:17:50;13.75;;;6.68;;
75937;SDS011;64615;32.062;34.834;2023-07-24T03:20:17;11.95;;;6.85;;
75937;SDS011;64615;32.062;34.834;2023-07-24T03:22:44;13.00;;;7.10;;
75937;SDS011;64615;32.062;34.834;2023-07-24T03:25:10;14.25;;;8.68;;
75937;SDS011;64615;32.062;34.834;2023-07-24T03:27:35;12.55;;;7.28;;
75937;SDS011;64615;32.062;34.834;2023-07-24T03:30:01;14.63;;;7.35;;
75937;SDS011;64615;32.062;34.834;2023-07-24T03:32:28;14.90;;;8.55;;
75937;SDS011;64615;32.062;34.834;2023-07-24T03:34:54;13.15;;;7.40;;
75937;SDS011;64615;32.062;34.834;2023-07-24T03:37:19;13.85;;;7.38;;
75937;SDS011;64615;32.062;34.834;2023-07-24T03:39:45;11.52;;;7.55;;
75937;SDS011;64615;32.062;34.834;2023-07-24T03:42:11;12.27;;;7.13;;
75937;SDS011;64615;32.062;34.834;2023-07-24T03:44:40;12.80;;;7.28;;
75937;SDS011;64615;32.062;34.834;2023-07-24T03:47:06;13.43;;;6.95;;
75937;SDS011;64615;32.062;34.834;2023-07-24T03:49:32;14.27;;;7.50;;
75937;SDS011;64615;32.062;34.834;2023-07-24T03:51:58;13.98;;;8.43;;
75937;SDS011;64615;32.062;34.834;2023-07-24T03:54:24;11.73;;;7.25;;
75937;SDS011;64615;32.062;34.834;2023-07-24T03:56:50;11.93;;;7.30;;
75937;SDS011;64615;32.062;34.834;2023-07-24T03:59:15;11.38;;;7.07;;
75937;SDS011;64615;32.062;34.834;2023-07-24T04:01:41;15.23;;;8.00;;
75937;SDS011;64615;32.062;34.834;2023-07-24T04:04:06;15.00;;;7.30;;
75937;SDS011;64615;32.062;34.834;2023-07-24T04:06:32;12.65;;;7.63;;
75937;SDS011;64615;32.062;34.834;2023-07-24T04:08:58;13.98;;;8.52;;
75937;SDS011;64615;32.062;34.834;2023-07-24T04:11:23;14.60;;;8.32;;
75937;SDS011;64615;32.062;34.834;2023-07-24T04:13:49;12.98;;;7.43;;
75937;SDS011;64615;32.062;34.834;2023-07-24T04:16:15;12.23;;;7.72;;
75937;SDS011;64615;32.062;34.834;2023-07-24T04:18:40;13.95;;;7.63;;
75937;SDS011;64615;32.062;34.834;2023-07-24T04:21:06;15.25;;;7.88;;
75937;SDS011;64615;32.062;34.834;2023-07-24T04:23:32;15.60;;;7.95;;
75937;SDS011;64615;32.062;34.834;2023-07-24T04:25:57;16.48;;;7.78;;
75937;SDS011;64615;32.062;34.834;2023-07-24T04:28:23;21.50;;;8.52;;
75937;SDS011;64615;32.062;34.834;2023-07-24T04:30:48;25.80;;;7.93;;
75937;SDS011;64615;32.062;34.834;2023-07-24T04:33:14;17.85;;;8.48;;
75937;SDS011;64615;32.062;34.834;2023-07-24T04:35:40;20.67;;;8.15;;
75937;SDS011;64615;32.062;34.834;2023-07-24T04:38:05;21.00;;;8.85;;
75937;SDS011;64615;32.062;34.834;2023-07-24T04:40:31;17.52;;;8.45;;
75937;SDS011;64615;32.062;34.834;2023-07-24T04:42:58;19.35;;;8.93;;
75937;SDS011;64615;32.062;34.834;2023-07-24T04:45:23;18.67;;;8.68;;
75937;SDS011;64615;32.062;34.834;2023-07-24T04:47:49;16.35;;;8.50;;
75937;SDS011;64615;32.062;34.834;2023-07-24T04:50:15;16.50;;;8.18;;
75937;SDS011;64615;32.062;34.834;2023-07-24T04:52:40;17.75;;;8.90;;
75937;SDS011;64615;32.062;34.834;2023-07-24T04:55:06;16.10;;;9.25;;
75937;SDS011;64615;32.062;34.834;2023-07-24T04:57:32;19.25;;;9.65;;
75937;SDS011;64615;32.062;34.834;2023-07-24T04:59:57;19.27;;;8.85;;
75937;SDS011;64615;32.062;34.834;2023-07-24T05:02:23;17.98;;;9.43;;
75937;SDS011;64615;32.062;34.834;2023-07-24T05:04:48;19.05;;;9.98;;
75937;SDS011;64615;32.062;34.834;2023-07-24T05:07:14;17.05;;;9.00;;
75937;SDS011;64615;32.062;34.834;2023-07-24T05:09:40;22.00;;;11.25;;
75937;SDS011;64615;32.062;34.834;2023-07-24T05:12:05;18.88;;;9.98;;
75937;SDS011;64615;32.062;34.834;2023-07-24T05:14:31;15.85;;;9.55;;
75937;SDS011;64615;32.062;34.834;2023-07-24T05:16:57;18.55;;;11.82;;
75937;SDS011;64615;32.062;34.834;2023-07-24T05:19:23;19.77;;;9.57;;
75937;SDS011;64615;32.062;34.834;2023-07-24T05:21:48;15.23;;;9.10;;
75937;SDS011;64615;32.062;34.834;2023-07-24T05:24:14;16.35;;;10.02;;
75937;SDS011;64615;32.062;34.834;2023-07-24T05:26:39;17.35;;;9.65;;
75937;SDS011;64615;32.062;34.834;2023-07-24T05:29:05;14.45;;;9.20;;
75937;SDS011;64615;32.062;34.834;2023-07-24T05:31:31;15.05;;;9.70;;
75937;SDS011;64615;32.062;34.834;2023-07-24T05:33:56;19.58;;;10.48;;
75937;SDS011;64615;32.062;34.834;2023-07-24T05:36:22;20.85;;;11.57;;
75937;SDS011;64615;32.062;34.834;2023-07-24T05:38:47;16.02;;;10.20;;
75937;SDS011;64615;32.062;34.834;2023-07-24T05:41:13;17.67;;;10.18;;
75937;SDS011;64615;32.062;34.834;2023-07-24T05:43:38;19.23;;;10.52;;
75937;SDS011;64615;32.062;34.834;2023-07-24T05:46:04;16.05;;;9.65;;
75937;SDS011;64615;32.062;34.834;2023-07-24T05:48:30;17.70;;;10.35;;
75937;SDS011;64615;32.062;34.834;2023-07-24T05:50:55;17.55;;;10.85;;
75937;SDS011;64615;32.062;34.834;2023-07-24T05:53:21;21.70;;;10.77;;
75937;SDS011;64615;32.062;34.834;2023-07-24T05:55:46;16.10;;;9.77;;
75937;SDS011;64615;32.062;34.834;2023-07-24T05:58:12;15.90;;;10.00;;
75937;SDS011;64615;32.062;34.834;2023-07-24T06:00:38;17.08;;;11.40;;
75937;SDS011;64615;32.062;34.834;2023-07-24T06:03:04;14.65;;;10.07;;
75937;SDS011;64615;32.062;34.834;2023-07-24T06:05:30;16.45;;;10.30;;
75937;SDS011;64615;32.062;34.834;2023-07-24T06:07:55;16.92;;;9.98;;
75937;SDS011;64615;32.062;34.834;2023-07-24T06:10:21;15.68;;;10.30;;
75937;SDS011;64615;32.062;34.834;2023-07-24T06:12:46;18.85;;;10.93;;
75937;SDS011;64615;32.062;34.834;2023-07-24T06:15:12;15.85;;;10.38;;
75937;SDS011;64615;32.062;34.834;2023-07-24T06:17:38;16.25;;;10.98;;
75937;SDS011;64615;32.062;34.834;2023-07-24T06:20:04;14.95;;;10.85;;
75937;SDS011;64615;32.062;34.834;2023-07-24T06:22:30;17.00;;;10.63;;
75937;SDS011;64615;32.062;34.834;2023-07-24T06:24:56;15.45;;;10.15;;
75937;SDS011;64615;32.062;34.834;2023-07-24T06:27:22;17.25;;;10.30;;
75937;SDS011;64615;32.062;34.834;2023-07-24T06:29:47;17.63;;;10.55;;
75937;SDS011;64615;32.062;34.834;2023-07-24T06:32:13;14.45;;;10.18;;
75937;SDS011;64615;32.062;34.834;2023-07-24T06:34:38;16.45;;;10.52;;
75937;SDS011;64615;32.062;34.834;2023-07-24T06:37:04;17.50;;;10.38;;
75937;SDS011;64615;32.062;34.834;2023-07-24T06:39:30;15.48;;;10.07;;
75937;SDS011;64615;32.062;34.834;2023-07-24T06:41:56;14.80;;;10.13;;
75937;SDS011;64615;32.062;34.834;2023-07-24T06:44:21;14.32;;;9.68;;
75937;SDS011;64615;32.062;34.834;2023-07-24T06:46:47;17.15;;;10.77;;
75937;SDS011;64615;32.062;34.834;2023-07-24T06:49:13;16.05;;;10.48;;
75937;SDS011;64615;32.062;34.834;2023-07-24T06:51:38;15.18;;;10.10;;
75937;SDS011;64615;32.062;34.834;2023-07-24T06:54:05;15.60;;;9.95;;
75937;SDS011;64615;32.062;34.834;2023-07-24T06:56:31;14.60;;;9.80;;
75937;SDS011;64615;32.062;34.834;2023-07-24T06:58:56;17.33;;;10.15;;
75937;SDS011;64615;32.062;34.834;2023-07-24T07:01:22;12.88;;;9.57;;
75937;SDS011;64615;32.062;34.834;2023-07-24T07:03:48;17.80;;;10.93;;
75937;SDS011;64615;32.062;34.834;2023-07-24T07:06:13;14.65;;;9.77;;
75937;SDS011;64615;32.062;34.834;2023-07-24T07:08:39;17.05;;;11.00;;
75937;SDS011;64615;32.062;34.834;2023-07-24T07:11:05;15.43;;;9.48;;
75937;SDS011;64615;32.062;34.834;2023-07-24T07:13:30;12.38;;;9.77;;
75937;SDS011;64615;32.062;34.834;2023-07-24T07:15:56;16.60;;;10.60;;
75937;SDS011;64615;32.062;34.834;2023-07-24T07:18:21;14.35;;;9.52;;
75937;SDS011;64615;32.062;34.834;2023-07-24T07:20:48;16.23;;;9.73;;
75937;SDS011;64615;32.062;34.834;2023-07-24T07:23:14;13.93;;;9.05;;
75937;SDS011;64615;32.062;34.834;2023-07-24T07:25:40;13.85;;;9.43;;
75937;SDS011;64615;32.062;34.834;2023-07-24T07:28:08;14.27;;;8.68;;
75937;SDS011;64615;32.062;34.834;2023-07-24T07:30:34;12.98;;;8.95;;
75937;SDS011;64615;32.062;34.834;2023-07-24T07:33:00;14.68;;;9.48;;
75937;SDS011;64615;32.062;34.834;2023-07-24T07:35:26;14.80;;;9.63;;
75937;SDS011;64615;32.062;34.834;2023-07-24T07:37:52;13.05;;;9.13;;
75937;SDS011;64615;32.062;34.834;2023-07-24T07:40:17;15.07;;;9.32;;
75937;SDS011;64615;32.062;34.834;2023-07-24T07:42:43;13.82;;;9.40;;
75937;SDS011;64615;32.062;34.834;2023-07-24T07:45:10;12.65;;;9.05;;
75937;SDS011;64615;32.062;34.834;2023-07-24T07:47:36;14.27;;;8.85;;
75937;SDS011;64615;32.062;34.834;2023-07-24T07:50:02;13.40;;;8.63;;
75937;SDS011;64615;32.062;34.834;2023-07-24T07:52:28;12.68;;;8.52;;
75937;SDS011;64615;32.062;34.834;2023-07-24T07:54:54;16.67;;;9.38;;
75937;SDS011;64615;32.062;34.834;2023-07-24T07:57:19;12.45;;;8.93;;
75937;SDS011;64615;32.062;34.834;2023-07-24T07:59:45;14.63;;;9.13;;
75937;SDS011;64615;32.062;34.834;2023-07-24T08:02:10;13.48;;;8.93;;
75937;SDS011;64615;32.062;34.834;2023-07-24T08:04:36;14.18;;;9.10;;
75937;SDS011;64615;32.062;34.834;2023-07-24T08:07:02;14.45;;;8.48;;
75937;SDS011;64615;32.062;34.834;2023-07-24T08:09:28;12.25;;;8.32;;
75937;SDS011;64615;32.062;34.834;2023-07-24T08:11:53;11.25;;;8.38;;
75937;SDS011;64615;32.062;34.834;2023-07-24T08:14:19;13.90;;;8.27;;
75937;SDS011;64615;32.062;34.834;2023-07-24T08:16:47;12.20;;;8.73;;
75937;SDS011;64615;32.062;34.834;2023-07-24T08:19:14;13.35;;;8.65;;
75937;SDS011;64615;32.062;34.834;2023-07-24T08:21:39;15.40;;;8.10;;
75937;SDS011;64615;32.062;34.834;2023-07-24T08:24:05;12.52;;;8.23;;
75937;SDS011;64615;32.062;34.834;2023-07-24T08:26:31;11.05;;;7.78;;
75937;SDS011;64615;32.062;34.834;2023-07-24T08:28:57;12.65;;;8.40;;
75937;SDS011;64615;32.062;34.834;2023-07-24T08:31:23;12.77;;;7.70;;
75937;SDS011;64615;32.062;34.834;2023-07-24T08:33:48;13.85;;;8.00;;
75937;SDS011;64615;32.062;34.834;2023-07-24T08:36:14;14.25;;;8.18;;
75937;SDS011;64615;32.062;34.834;2023-07-24T08:38:40;12.65;;;7.57;;
75937;SDS011;64615;32.062;34.834;2023-07-24T08:41:11;13.55;;;8.10;;
75937;SDS011;64615;32.062;34.834;2023-07-24T08:43:39;10.73;;;8.80;;
75937;SDS011;64615;32.062;34.834;2023-07-24T08:46:06;9.82;;;7.30;;
75937;SDS011;64615;32.062;34.834;2023-07-24T08:48:40;12.00;;;7.25;;
75937;SDS011;64615;32.062;34.834;2023-07-24T08:51:11;13.35;;;7.43;;
75937;SDS011;64615;32.062;34.834;2023-07-24T08:53:41;11.98;;;7.28;;
75937;SDS011;64615;32.062;34.834;2023-07-24T08:56:09;9.50;;;7.07;;
75937;SDS011;64615;32.062;34.834;2023-07-24T08:58:37;12.15;;;7.80;;
75937;SDS011;64615;32.062;34.834;2023-07-24T09:01:04;11.10;;;7.35;;
75937;SDS011;64615;32.062;34.834;2023-07-24T09:03:31;9.82;;;6.75;;
75937;SDS011;64615;32.062;34.834;2023-07-24T09:05:57;10.68;;;7.30;;
75937;SDS011;64615;32.062;34.834;2023-07-24T09:08:29;10.98;;;7.60;;
75937;SDS011;64615;32.062;34.834;2023-07-24T09:11:03;11.63;;;7.40;;
75937;SDS011;64615;32.062;34.834;2023-07-24T09:13:29;13.57;;;7.07;;
75937;SDS011;64615;32.062;34.834;2023-07-24T09:15:55;11.18;;;7.32;;
75937;SDS011;64615;32.062;34.834;2023-07-24T09:18:22;10.75;;;7.00;;
75937;SDS011;64615;32.062;34.834;2023-07-24T09:20:48;9.80;;;6.72;;
75937;SDS011;64615;32.062;34.834;2023-07-24T09:23:14;10.52;;;7.00;;
75937;SDS011;64615;32.062;34.834;2023-07-24T09:25:41;9.90;;;6.72;;
75937;SDS011;64615;32.062;34.834;2023-07-24T09:28:12;11.05;;;6.45;;
75937;SDS011;64615;32.062;34.834;2023-07-24T09:30:39;11.90;;;6.72;;
75937;SDS011;64615;32.062;34.834;2023-07-24T09:33:05;10.65;;;6.75;;
75937;SDS011;64615;32.062;34.834;2023-07-24T09:35:31;9.77;;;6.55;;
75937;SDS011;64615;32.062;34.834;2023-07-24T09:40:39;10.02;;;6.30;;
75937;SDS011;64615;32.062;34.834;2023-07-24T09:45:49;12.07;;;6.95;;
75937;SDS011;64615;32.062;34.834;2023-07-24T09:48:16;13.70;;;6.75;;
75937;SDS011;64615;32.062;34.834;2023-07-24T09:50:45;9.27;;;6.30;;
75937;SDS011;64615;32.062;34.834;2023-07-24T09:53:17;11.43;;;6.60;;
75937;SDS011;64615;32.062;34.834;2023-07-24T09:55:49;11.23;;;6.95;;
75937;SDS011;64615;32.062;34.834;2023-07-24T09:58:20;12.73;;;6.63;;
75937;SDS011;64615;32.062;34.834;2023-07-24T10:00:47;14.88;;;7.68;;
75937;SDS011;64615;32.062;34.834;2023-07-24T10:03:14;12.77;;;7.25;;
75937;SDS011;64615;32.062;34.834;2023-07-24T10:05:41;13.45;;;6.82;;
75937;SDS011;64615;32.062;34.834;2023-07-24T10:08:10;10.45;;;6.68;;
75937;SDS011;64615;32.062;34.834;2023-07-24T10:10:36;11.50;;;7.10;;
75937;SDS011;64615;32.062;34.834;2023-07-24T10:13:06;10.68;;;7.38;;
75937;SDS011;64615;32.062;34.834;2023-07-24T10:15:32;10.02;;;6.47;;
75937;SDS011;64615;32.062;34.834;2023-07-24T10:18:02;9.82;;;6.57;;
75937;SDS011;64615;32.062;34.834;2023-07-24T10:20:34;9.85;;;6.05;;
75937;SDS011;64615;32.062;34.834;2023-07-24T10:23:04;11.18;;;6.90;;
75937;SDS011;64615;32.062;34.834;2023-07-24T10:25:32;9.35;;;6.18;;
75937;SDS011;64615;32.062;34.834;2023-07-24T10:28:07;10.52;;;6.03;;
75937;SDS011;64615;32.062;34.834;2023-07-24T10:30:39;13.93;;;7.18;;
75937;SDS011;64615;32.062;34.834;2023-07-24T10:33:44;13.57;;;6.32;;
75937;SDS011;64615;32.062;34.834;2023-07-24T10:36:07;9.57;;;6.20;;
75937;SDS011;64615;32.062;34.834;2023-07-24T10:38:45;9.70;;;6.10;;
75937;SDS011;64615;32.062;34.834;2023-07-24T10:41:12;11.93;;;6.43;;
75937;SDS011;64615;32.062;34.834;2023-07-24T10:46:17;9.60;;;6.20;;
75937;SDS011;64615;32.062;34.834;2023-07-24T10:48:45;9.45;;;6.38;;
75937;SDS011;64615;32.062;34.834;2023-07-24T10:51:12;9.45;;;5.57;;
75937;SDS011;64615;32.062;34.834;2023-07-24T10:53:41;9.40;;;7.07;;
75937;SDS011;64615;32.062;34.834;2023-07-24T10:56:11;9.77;;;5.63;;
75937;SDS011;64615;32.062;34.834;2023-07-24T10:58:36;9.38;;;5.90;;
75937;SDS011;64615;32.062;34.834;2023-07-24T11:01:05;10.70;;;5.88;;
75937;SDS011;64615;32.062;34.834;2023-07-24T11:03:34;9.15;;;5.40;;
75937;SDS011;64615;32.062;34.834;2023-07-24T11:06:01;9.27;;;5.53;;
75937;SDS011;64615;32.062;34.834;2023-07-24T11:08:28;8.57;;;5.43;;
75937;SDS011;64615;32.062;34.834;2023-07-24T11:10:55;12.15;;;6.43;;
75937;SDS011;64615;32.062;34.834;2023-07-24T11:13:26;9.00;;;5.88;;
75937;SDS011;64615;32.062;34.834;2023-07-24T11:15:53;9.00;;;5.32;;
75937;SDS011;64615;32.062;34.834;2023-07-24T11:18:20;9.02;;;5.60;;
75937;SDS011;64615;32.062;34.834;2023-07-24T11:20:53;9.90;;;6.25;;
75937;SDS011;64615;32.062;34.834;2023-07-24T11:23:20;8.30;;;5.47;;
75937;SDS011;64615;32.062;34.834;2023-07-24T11:25:49;9.23;;;5.40;;
75937;SDS011;64615;32.062;34.834;2023-07-24T11:28:15;9.93;;;6.03;;
75937;SDS011;64615;32.062;34.834;2023-07-24T11:30:41;8.82;;;5.63;;
75937;SDS011;64615;32.062;34.834;2023-07-24T11:33:10;10.45;;;5.70;;
75937;SDS011;64615;32.062;34.834;2023-07-24T11:35:37;10.32;;;5.20;;
75937;SDS011;64615;32.062;34.834;2023-07-24T11:38:05;9.13;;;5.60;;
75937;SDS011;64615;32.062;34.834;2023-07-24T11:40:39;9.98;;;5.00;;
75937;SDS011;64615;32.062;34.834;2023-07-24T11:43:14;7.95;;;4.90;;
75937;SDS011;64615;32.062;34.834;2023-07-24T11:45:48;10.10;;;5.53;;
75937;SDS011;64615;32.062;34.834;2023-07-24T11:48:18;9.35;;;4.90;;
75937;SDS011;64615;32.062;34.834;2023-07-24T11:50:48;8.77;;;5.20;;
75937;SDS011;64615;32.062;34.834;2023-07-24T11:53:18;7.85;;;5.53;;
75937;SDS011;64615;32.062;34.834;2023-07-24T11:55:47;13.07;;;5.18;;
75937;SDS011;64615;32.062;34.834;2023-07-24T11:58:14;10.63;;;5.40;;
75937;SDS011;64615;32.062;34.834;2023-07-24T12:00:41;8.82;;;4.97;;
75937;SDS011;64615;32.062;34.834;2023-07-24T12:03:07;9.00;;;4.88;;
75937;SDS011;64615;32.062;34.834;2023-07-24T12:05:43;8.88;;;5.15;;
75937;SDS011;64615;32.062;34.834;2023-07-24T12:08:12;7.88;;;4.90;;
75937;SDS011;64615;32.062;34.834;2023-07-24T12:10:39;9.77;;;5.32;;
75937;SDS011;64615;32.062;34.834;2023-07-24T12:13:06;9.70;;;5.28;;
75937;SDS011;64615;32.062;34.834;2023-07-24T12:15:32;8.45;;;4.93;;
75937;SDS011;64615;32.062;34.834;2023-07-24T12:20:26;8.43;;;4.95;;
75937;SDS011;64615;32.062;34.834;2023-07-24T12:22:52;7.43;;;4.88;;
75937;SDS011;64615;32.062;34.834;2023-07-24T12:25:18;10.15;;;5.20;;
75937;SDS011;64615;32.062;34.834;2023-07-24T12:27:45;9.57;;;4.85;;
75937;SDS011;64615;32.062;34.834;2023-07-24T12:30:12;9.30;;;4.55;;
75937;SDS011;64615;32.062;34.834;2023-07-24T12:32:38;11.10;;;4.93;;
75937;SDS011;64615;32.062;34.834;2023-07-24T12:35:04;9.35;;;4.85;;
75937;SDS011;64615;32.062;34.834;2023-07-24T12:37:30;8.68;;;5.05;;
75937;SDS011;64615;32.062;34.834;2023-07-24T12:39:56;9.15;;;5.53;;
75937;SDS011;64615;32.062;34.834;2023-07-24T12:42:22;10.45;;;5.07;;
75937;SDS011;64615;32.062;34.834;2023-07-24T12:44:48;8.07;;;4.57;;
75937;SDS011;64615;32.062;34.834;2023-07-24T12:47:14;7.80;;;4.25;;
75937;SDS011;64615;32.062;34.834;2023-07-24T12:49:40;9.25;;;4.50;;
75937;SDS011;64615;32.062;34.834;2023-07-24T12:52:06;7.82;;;4.68;;
75937;SDS011;64615;32.062;34.834;2023-07-24T12:54:32;9.30;;;4.43;;
75937;SDS011;64615;32.062;34.834;2023-07-24T12:56:59;7.45;;;4.13;;
75937;SDS011;64615;32.062;34.834;2023-07-24T12:59:25;6.63;;;4.28;;
75937;SDS011;64615;32.062;34.834;2023-07-24T13:01:51;8.05;;;4.75;;
75937;SDS011;64615;32.062;34.834;2023-07-24T13:04:16;8.80;;;4.78;;
75937;SDS011;64615;32.062;34.834;2023-07-24T13:06:44;8.82;;;4.20;;
75937;SDS011;64615;32.062;34.834;2023-07-24T13:09:09;7.20;;;4.57;;
75937;SDS011;64615;32.062;34.834;2023-07-24T13:11:35;9.38;;;5.03;;
75937;SDS011;64615;32.062;34.834;2023-07-24T13:14:01;7.25;;;4.43;;
75937;SDS011;64615;32.062;34.834;2023-07-24T13:16:26;7.35;;;4.35;;
75937;SDS011;64615;32.062;34.834;2023-07-24T13:18:52;8.13;;;3.80;;
75937;SDS011;64615;32.062;34.834;2023-07-24T13:21:18;7.43;;;4.28;;
75937;SDS011;64615;32.062;34.834;2023-07-24T13:23:43;8.35;;;4.38;;
75937;SDS011;64615;32.062;34.834;2023-07-24T13:26:09;7.30;;;4.32;;
75937;SDS011;64615;32.062;34.834;2023-07-24T13:28:36;7.75;;;4.07;;
75937;SDS011;64615;32.062;34.834;2023-07-24T13:31:12;6.63;;;3.72;;
75937;SDS011;64615;32.062;34.834;2023-07-24T13:33:42;8.65;;;4.15;;
75937;SDS011;64615;32.062;34.834;2023-07-24T13:36:07;7.18;;;3.95;;
75937;SDS011;64615;32.062;34.834;2023-07-24T13:38:33;8.20;;;4.38;;
75937;SDS011;64615;32.062;34.834;2023-07-24T13:40:59;7.30;;;4.38;;
75937;SDS011;64615;32.062;34.834;2023-07-24T13:43:25;7.22;;;4.20;;
75937;SDS011;64615;32.062;34.834;2023-07-24T13:45:50;8.63;;;4.50;;
75937;SDS011;64615;32.062;34.834;2023-07-24T13:48:16;9.07;;;4.75;;
75937;SDS011;64615;32.062;34.834;2023-07-24T13:50:42;8.60;;;4.45;;
75937;SDS011;64615;32.062;34.834;2023-07-24T13:53:07;7.82;;;3.95;;
75937;SDS011;64615;32.062;34.834;2023-07-24T13:55:33;6.38;;;3.63;;
75937;SDS011;64615;32.062;34.834;2023-07-24T13:57:59;9.40;;;3.85;;
75937;SDS011;64615;32.062;34.834;2023-07-24T14:00:24;6.85;;;3.95;;
75937;SDS011;64615;32.062;34.834;2023-07-24T14:02:50;8.10;;;4.05;;
75937;SDS011;64615;32.062;34.834;2023-07-24T14:05:16;7.75;;;3.97;;
75937;SDS011;64615;32.062;34.834;2023-07-24T14:07:42;7.45;;;4.03;;
75937;SDS011;64615;32.062;34.834;2023-07-24T14:10:09;8.13;;;3.85;;
75937;SDS011;64615;32.062;34.834;2023-07-24T14:12:35;8.57;;;3.80;;
75937;SDS011;64615;32.062;34.834;2023-07-24T14:15:01;7.20;;;4.07;;
75937;SDS011;64615;32.062;34.834;2023-07-24T14:17:27;7.15;;;4.32;;
75937;SDS011;64615;32.062;34.834;2023-07-24T14:19:53;6.32;;;3.63;;
75937;SDS011;64615;32.062;34.834;2023-07-24T14:22:19;6.40;;;3.63;;
75937;SDS011;64615;32.062;34.834;2023-07-24T14:24:45;6.30;;;4.00;;
75937;SDS011;64615;32.062;34.834;2023-07-24T14:27:12;7.43;;;3.88;;
75937;SDS011;64615;32.062;34.834;2023-07-24T14:29:38;6.80;;;3.92;;
75937;SDS011;64615;32.062;34.834;2023-07-24T14:32:04;9.60;;;3.95;;
75937;SDS011;64615;32.062;34.834;2023-07-24T14:34:30;7.55;;;3.60;;
75937;SDS011;64615;32.062;34.834;2023-07-24T14:36:56;7.35;;;3.95;;
75937;SDS011;64615;32.062;34.834;2023-07-24T14:39:22;5.65;;;3.50;;